createdAt,value
2018-05-27T00:04:26.872Z,17.05
2018-05-27T00:10:21.935Z,18.42
2018-05-27T00:16:16.932Z,18.42
2018-05-27T00:22:11.907Z,14.76
2018-05-27T00:28:06.886Z,18.25
2018-05-27T00:34:01.940Z,15.18
2018-05-27T00:39:56.930Z,16.23
2018-05-27T00:45:51.950Z,18.9
2018-05-27T00:51:46.942Z,21.74
2018-05-27T00:57:41.940Z,15.54
2018-05-27T01:03:36.949Z,19.03
2018-05-27T01:09:31.959Z,17.62
2018-05-27T01:15:26.933Z,21.53
2018-05-27T01:21:21.939Z,18.01
2018-05-27T01:27:16.950Z,21.91
2018-05-27T01:33:11.943Z,19.26
2018-05-27T01:39:07.143Z,18.19
2018-05-27T01:45:01.954Z,16.58
2018-05-27T01:50:56.970Z,19.55
2018-05-27T01:56:52.014Z,18.31
2018-05-27T02:02:46.986Z,15.75
2018-05-27T02:08:41.977Z,16.27
2018-05-27T02:14:36.996Z,17.44
2018-05-27T02:20:31.987Z,19.4
2018-05-27T02:26:26.973Z,15.63
2018-05-27T02:32:22.000Z,13.98
2018-05-27T02:38:17.033Z,16.68
2018-05-27T02:44:11.975Z,15.07
2018-05-27T02:50:06.987Z,17.19
2018-05-27T02:56:01.997Z,15.87
2018-05-27T03:01:57.013Z,17.79
2018-05-27T03:07:52.009Z,21.22
2018-05-27T03:13:46.997Z,18.67
2018-05-27T03:19:42.004Z,16.87
2018-05-27T03:25:37.027Z,21.87
2018-05-27T03:31:32.032Z,20.43
2018-05-27T03:37:27.036Z,14.65
2018-05-27T03:43:22.157Z,15.02
2018-05-27T03:49:17.061Z,15.41
2018-05-27T03:55:12.043Z,16.07
2018-05-27T04:01:07.023Z,15.56
2018-05-27T04:07:02.074Z,13.22
2018-05-27T04:12:57.080Z,12.7
2018-05-27T04:18:52.091Z,17.04
2018-05-27T04:24:47.083Z,17.1
2018-05-27T04:30:42.100Z,15.33
2018-05-27T04:36:37.186Z,16.25
2018-05-27T04:42:32.129Z,15.93
2018-05-27T04:48:27.082Z,17.88
2018-05-27T04:54:22.055Z,18.96
2018-05-27T05:00:17.104Z,13.62
2018-05-27T05:06:12.077Z,19.52
2018-05-27T05:12:07.131Z,17.07
2018-05-27T05:18:02.104Z,14.2
2018-05-27T05:23:57.145Z,13.84
2018-05-27T05:29:52.142Z,15.2
2018-05-27T05:35:47.112Z,20.76
2018-05-27T05:41:42.113Z,18.93
2018-05-27T05:47:37.173Z,15.36
2018-05-27T05:53:32.094Z,17.73
2018-05-27T05:59:27.157Z,19.83
2018-05-27T06:05:22.167Z,21.33
2018-05-27T06:11:17.196Z,19.5
2018-05-27T06:17:12.175Z,17.73
2018-05-27T06:23:07.116Z,16.96
2018-05-27T06:29:02.141Z,18.12
2018-05-27T06:34:57.177Z,23.49
2018-05-27T06:40:52.175Z,17.76
2018-05-27T06:46:47.161Z,21.98
2018-05-27T06:52:42.145Z,16.36
2018-05-27T06:58:37.143Z,15.89
2018-05-27T07:04:32.223Z,14.15
2018-05-27T07:10:27.165Z,15.31
2018-05-27T07:16:22.148Z,15.97
2018-05-27T07:22:17.193Z,14.86
2018-05-27T07:28:12.227Z,12.61
2018-05-27T07:34:07.200Z,15.39
2018-05-27T07:40:02.558Z,13.37
2018-05-27T07:45:57.206Z,15.02
2018-05-27T07:51:52.246Z,16.22
2018-05-27T07:57:47.290Z,16.43
2018-05-27T08:03:42.285Z,10.72
2018-05-27T08:09:37.228Z,17.2
2018-05-27T08:15:32.284Z,11.37
2018-05-27T08:21:27.248Z,12.35
2018-05-27T08:27:22.232Z,14.61
2018-05-27T08:33:17.243Z,12.45
2018-05-27T08:39:12.225Z,17.17
2018-05-27T08:45:07.253Z,10.85
2018-05-27T08:51:02.242Z,9.39
2018-05-27T08:56:57.241Z,12.54
2018-05-27T09:02:52.274Z,11.34
2018-05-27T09:08:47.319Z,8.26
2018-05-27T09:14:42.273Z,13.34
2018-05-27T09:20:37.280Z,11.58
2018-05-27T09:26:32.284Z,9.23
2018-05-27T09:32:27.265Z,8.15
2018-05-27T09:38:22.291Z,7.35
2018-05-27T09:44:17.307Z,10.43
2018-05-27T09:50:12.318Z,10.07
2018-05-27T09:56:07.364Z,7.92
2018-05-27T10:02:02.360Z,10
2018-05-27T10:07:57.302Z,12.51
2018-05-27T10:13:52.350Z,8.62
2018-05-27T10:19:47.304Z,6.6
2018-05-27T10:25:42.358Z,6.65
2018-05-27T10:31:37.307Z,5.74
2018-05-27T10:37:32.328Z,10.77
2018-05-27T10:43:27.331Z,11.22
2018-05-27T10:49:22.331Z,7.57
2018-05-27T10:55:17.325Z,7.94
2018-05-27T11:01:12.330Z,9.14
2018-05-27T11:07:07.340Z,4.31
2018-05-27T11:13:02.366Z,6.81
2018-05-27T11:18:57.410Z,3.25
2018-05-27T11:24:52.390Z,3.84
2018-05-27T11:30:47.417Z,3.25
2018-05-27T11:36:42.389Z,3.46
2018-05-27T11:42:37.404Z,2.27
2018-05-27T11:48:32.390Z,2.67
2018-05-27T11:54:27.429Z,1.7
2018-05-27T12:00:22.510Z,1.67
2018-05-27T12:06:17.400Z,2.22
2018-05-27T12:12:12.414Z,3.75
2018-05-27T12:18:07.469Z,1.49
2018-05-27T12:24:02.565Z,2.17
2018-05-27T12:29:57.477Z,4.76
2018-05-27T12:35:52.393Z,1.16
2018-05-27T12:41:47.449Z,3.76
2018-05-27T12:47:42.458Z,4.18
2018-05-27T12:53:37.435Z,1.62
2018-05-27T12:59:32.433Z,2.99
2018-05-27T13:05:27.419Z,3.76
2018-05-27T13:11:22.444Z,4.29
2018-05-27T13:17:17.486Z,3.87
2018-05-27T13:23:12.460Z,3.91
2018-05-27T13:29:07.490Z,4.26
2018-05-27T13:35:02.525Z,3.44
2018-05-27T13:40:57.550Z,5.87
2018-05-27T13:46:52.521Z,4.47
2018-05-27T13:52:47.490Z,4.43
2018-05-27T13:58:42.494Z,3.83
2018-05-27T14:04:37.548Z,3.6
2018-05-27T14:10:32.496Z,5.17
2018-05-27T14:16:27.519Z,6
2018-05-27T14:22:22.513Z,7.06
2018-05-27T14:28:17.522Z,7.15
2018-05-27T14:34:12.545Z,5.48
2018-05-27T14:40:07.572Z,4.48
2018-05-27T14:46:02.523Z,5.86
2018-05-27T14:51:57.519Z,3.54
2018-05-27T14:57:52.546Z,3.37
2018-05-27T15:03:47.569Z,5.11
2018-05-27T15:09:42.534Z,6.09
2018-05-27T15:15:37.582Z,7.35
2018-05-27T15:21:32.543Z,6
2018-05-27T15:27:27.545Z,7.67
2018-05-27T15:33:22.555Z,11.95
2018-05-27T15:39:17.580Z,9.36
2018-05-27T15:45:12.639Z,10.11
2018-05-27T15:51:07.561Z,13.8
2018-05-27T15:57:02.637Z,13.37
2018-05-27T16:02:57.600Z,11.19
2018-05-27T16:08:52.606Z,11.07
2018-05-27T16:14:47.591Z,10.93
2018-05-27T16:20:42.609Z,12.67
2018-05-27T16:26:37.619Z,13.66
2018-05-27T16:32:32.607Z,14.79
2018-05-27T16:38:27.644Z,15.82
2018-05-27T16:44:22.612Z,14.03
2018-05-27T16:50:17.676Z,14.45
2018-05-27T16:56:12.644Z,13.99
2018-05-27T17:02:07.643Z,12.03
2018-05-27T17:08:02.644Z,11.96
2018-05-27T17:13:57.637Z,13.19
2018-05-27T17:19:52.650Z,12.67
2018-05-27T17:25:47.670Z,11.86
2018-05-27T17:31:42.629Z,13.92
2018-05-27T17:37:37.629Z,16.2
2018-05-27T17:43:32.660Z,13.13
2018-05-27T17:49:27.682Z,12.23
2018-05-27T17:55:22.691Z,13.45
2018-05-27T18:01:17.713Z,13.74
2018-05-27T18:07:12.713Z,15.82
2018-05-27T18:13:07.686Z,14.61
2018-05-27T18:19:02.680Z,24.85
2018-05-27T18:24:57.705Z,13.83
2018-05-27T18:30:52.664Z,17.09
2018-05-27T18:36:47.681Z,17.63
2018-05-27T18:42:42.708Z,13.33
2018-05-27T18:48:37.734Z,15.19
2018-05-27T18:54:32.732Z,15.71
2018-05-27T19:00:27.800Z,16.78
2018-05-27T19:06:22.715Z,14.75
2018-05-27T19:12:17.740Z,15.9
2018-05-27T19:18:12.738Z,15.31
2018-05-27T19:24:07.714Z,17.24
2018-05-27T19:30:03.022Z,18.29
2018-05-27T19:35:57.744Z,16.15
2018-05-27T19:41:52.769Z,19.34
2018-05-27T19:47:47.768Z,16.67
2018-05-27T19:53:42.731Z,13.55
2018-05-27T19:59:37.818Z,18
2018-05-27T20:05:32.795Z,16.66
2018-05-27T20:11:27.772Z,15
2018-05-27T20:17:22.803Z,13.2
2018-05-27T20:23:17.795Z,14.4
2018-05-27T20:29:12.802Z,20.75
2018-05-27T20:35:07.771Z,17.23
2018-05-27T20:41:02.787Z,17.88
2018-05-27T20:46:57.807Z,15.23
2018-05-27T20:52:52.795Z,19.48
2018-05-27T20:58:47.809Z,40.4
2018-05-27T21:04:42.787Z,39.16
2018-05-27T21:10:37.788Z,33.35
2018-05-27T21:16:32.795Z,26.44
2018-05-27T21:22:27.839Z,20.92
2018-05-27T21:28:22.830Z,19.55
2018-05-27T21:34:17.836Z,20.75
2018-05-27T21:40:12.809Z,20.71
2018-05-27T21:46:07.831Z,18.15
2018-05-27T21:52:02.868Z,17.96
2018-05-27T21:57:57.844Z,18.4
2018-05-27T22:03:52.863Z,17.05
2018-05-27T22:09:47.853Z,18.93
2018-05-27T22:15:42.830Z,17.54
2018-05-27T22:21:37.867Z,19.72
2018-05-27T22:27:32.867Z,17.34
2018-05-27T22:33:27.869Z,19.2
2018-05-27T22:39:22.876Z,17.75
2018-05-27T22:45:17.867Z,17.94
2018-05-27T22:51:12.911Z,18.07
2018-05-27T22:57:07.900Z,17.38
2018-05-27T23:03:02.867Z,21.62
2018-05-27T23:08:57.888Z,20.64
2018-05-27T23:14:52.882Z,18.54
2018-05-27T23:20:47.932Z,18.14
2018-05-27T23:26:42.906Z,18.22
2018-05-27T23:32:37.918Z,18.07
2018-05-27T23:38:32.942Z,23.44
2018-05-27T23:44:27.927Z,18.71
2018-05-27T23:50:22.925Z,20.33
2018-05-27T23:56:17.923Z,17.87
